Time;durP1;ratioP1;P1;durP2;ratioP2;P2;SDS_P1;SDS_P2;PMS_P1;PMS_P2;Temp;Humidity;BMP_temperature;BMP_pressure;BME280_temperature;BME280_humidity;BME280_pressure;Samples;Min_cycle;Max_cycle;Signal;HPM_P1;HPM_P2
2022/04/19 00:01:20;;;;;;;4.82;4.10;;;13.70;47.80;;;;;;5053993;28;20083;-30
2022/04/19 00:03:46;;;;;;;5.55;4.22;;;13.60;47.80;;;;;;5053941;28;20032;-30
2022/04/19 00:06:12;;;;;;;5.53;3.72;;;13.60;47.90;;;;;;5054020;28;20048;-30
2022/04/19 00:08:37;;;;;;;5.68;4.10;;;13.60;47.90;;;;;;5054224;28;20115;-31
2022/04/19 00:11:04;;;;;;;5.13;3.95;;;13.60;47.90;;;;;;5054084;28;20426;-31
2022/04/19 00:13:30;;;;;;;4.30;3.40;;;13.50;47.90;;;;;;5054058;28;20087;-31
2022/04/19 00:15:57;;;;;;;5.60;3.88;;;13.50;48.60;;;;;;5053984;28;20433;-32
2022/04/19 00:18:23;;;;;;;8.98;4.00;;;13.50;47.90;;;;;;5053750;28;20472;-30
2022/04/19 00:20:49;;;;;;;4.00;3.53;;;13.40;47.90;;;;;;5053733;28;20049;-33
2022/04/19 00:23:15;;;;;;;5.55;3.63;;;13.40;48.00;;;;;;5053505;28;20040;-32
2022/04/19 00:25:43;;;;;;;4.70;3.70;;;13.40;48.00;;;;;;5053817;28;20075;-29
2022/04/19 00:28:09;;;;;;;5.95;3.40;;;13.30;48.00;;;;;;5053636;28;20021;-30
2022/04/19 00:30:35;;;;;;;4.95;3.63;;;13.30;48.00;;;;;;5053698;28;20048;-30
2022/04/19 00:33:01;;;;;;;6.35;4.13;;;13.30;48.10;;;;;;5035551;28;20024;-29
2022/04/19 00:35:28;;;;;;;5.28;3.70;;;13.30;48.10;;;;;;5053310;28;20101;-35
2022/04/19 00:37:54;;;;;;;5.60;3.70;;;13.30;48.20;;;;;;5053196;28;20044;-34
2022/04/19 00:40:20;;;;;;;5.18;3.88;;;13.30;48.30;;;;;;5053147;28;20477;-30
2022/04/19 00:42:46;;;;;;;5.10;3.63;;;13.20;48.20;;;;;;5053164;28;20051;-32
2022/04/19 00:45:12;;;;;;;5.88;4.00;;;13.20;48.30;;;;;;5053063;28;20050;-30
2022/04/19 00:47:38;;;;;;;5.70;3.95;;;13.20;48.30;;;;;;5053167;28;20059;-30
2022/04/19 00:50:05;;;;;;;5.18;3.97;;;13.10;48.20;;;;;;5053341;28;20032;-31
2022/04/19 00:52:32;;;;;;;4.25;3.55;;;13.10;48.20;;;;;;5053274;28;20117;-31
2022/04/19 00:54:59;;;;;;;5.70;3.97;;;13.10;48.20;;;;;;5052938;28;20063;-30
2022/04/19 00:57:26;;;;;;;4.10;3.67;;;13.10;48.20;;;;;;5053148;28;20527;-32
2022/04/19 00:59:56;;;;;;;6.78;4.47;;;13.10;48.20;;;;;;5052953;28;20104;-29
2022/04/19 01:02:23;;;;;;;5.80;4.10;;;13.00;48.10;;;;;;5053066;28;20063;-30
2022/04/19 01:04:52;;;;;;;5.88;4.10;;;13.00;48.10;;;;;;5053115;28;20064;-38
2022/04/19 01:07:19;;;;;;;4.40;3.70;;;13.00;48.20;;;;;;5052277;28;20029;-31
2022/04/19 01:09:46;;;;;;;5.45;4.25;;;13.00;48.30;;;;;;5052959;28;20096;-31
2022/04/19 01:15:01;;;;;;;5.57;3.80;;;12.90;48.30;;;;;;5053071;28;20048;-30
2022/04/19 01:17:27;;;;;;;5.45;3.95;;;12.90;48.30;;;;;;5052625;28;20025;-32
2022/04/19 01:19:54;;;;;;;6.30;4.20;;;12.80;48.30;;;;;;5052670;28;20033;-30
2022/04/19 01:22:19;;;;;;;5.53;4.10;;;12.80;48.30;;;;;;5034266;28;20041;-29
2022/04/19 01:24:45;;;;;;;6.80;3.95;;;12.80;48.40;;;;;;5034516;28;20036;-30
2022/04/19 01:27:13;;;;;;;5.15;3.90;;;12.80;48.30;;;;;;5052432;28;20135;-38
2022/04/19 01:29:39;;;;;;;7.05;4.32;;;12.80;48.40;;;;;;5052582;28;20372;-29
2022/04/19 01:32:06;;;;;;;6.57;4.20;;;12.70;48.30;;;;;;5052451;28;20025;-32
2022/04/19 01:34:32;;;;;;;5.80;4.18;;;12.70;48.40;;;;;;5052713;28;20029;-36
2022/04/19 01:36:58;;;;;;;5.30;4.03;;;12.70;48.50;;;;;;5052331;28;20369;-31
2022/04/19 01:42:09;;;;;;;5.50;4.00;;;12.60;48.60;;;;;;5052356;28;20079;-31
2022/04/19 01:44:36;;;;;;;5.35;4.00;;;12.60;48.80;;;;;;5052174;28;20029;-32
2022/04/19 01:47:04;;;;;;;5.15;3.92;;;12.50;48.80;;;;;;5052430;28;20472;-30
2022/04/19 01:49:30;;;;;;;4.80;3.95;;;12.50;48.90;;;;;;5052722;28;20438;-30
2022/04/19 01:51:55;;;;;;;6.20;3.85;;;12.40;48.90;;;;;;5052248;28;20021;-30
2022/04/19 01:54:21;;;;;;;5.65;4.22;;;12.40;49.00;;;;;;5052046;28;20019;-30
2022/04/19 01:56:48;;;;;;;5.70;3.85;;;12.40;49.10;;;;;;5052042;28;20031;-30
2022/04/19 01:59:13;;;;;;;5.40;4.03;;;12.30;49.10;;;;;;5052461;28;20361;-30
2022/04/19 02:01:39;;;;;;;5.80;4.22;;;12.30;49.20;;;;;;5052162;28;20071;-32
2022/04/19 02:04:05;;;;;;;7.78;4.47;;;12.20;49.30;;;;;;5052045;28;20374;-35
2022/04/19 02:06:31;;;;;;;4.78;3.70;;;12.20;49.30;;;;;;5052270;28;20079;-29
2022/04/19 02:08:57;;;;;;;7.47;4.07;;;12.20;49.40;;;;;;5052052;28;20415;-30
2022/04/19 02:11:24;;;;;;;5.55;4.18;;;12.10;49.40;;;;;;5051987;28;20104;-34
2022/04/19 02:13:51;;;;;;;5.90;4.07;;;12.10;49.50;;;;;;5052274;28;20479;-29
2022/04/19 02:16:17;;;;;;;5.47;4.35;;;12.10;49.50;;;;;;5052459;28;20033;-33
2022/04/19 02:18:43;;;;;;;6.75;4.18;;;12.10;49.60;;;;;;5054155;28;20021;-36
2022/04/19 02:21:09;;;;;;;6.35;4.43;;;12.10;49.60;;;;;;5056188;28;20104;-33
2022/04/19 02:23:35;;;;;;;8.95;4.60;;;12.00;49.60;;;;;;5055821;28;20048;-32
2022/04/19 02:26:02;;;;;;;7.00;4.30;;;12.00;49.60;;;;;;5056075;28;20379;-29
2022/04/19 02:28:28;;;;;;;6.50;4.35;;;12.00;49.70;;;;;;5055985;28;20052;-32
2022/04/19 02:30:54;;;;;;;6.60;4.82;;;11.90;49.70;;;;;;5055917;28;20365;-30
2022/04/19 02:33:20;;;;;;;8.18;4.35;;;11.90;49.70;;;;;;5055901;28;20049;-29
2022/04/19 02:35:45;;;;;;;6.80;4.10;;;11.90;49.80;;;;;;5055612;28;20116;-31
2022/04/19 02:38:11;;;;;;;6.88;4.55;;;11.90;49.90;;;;;;5055495;28;20058;-31
2022/04/19 02:40:37;;;;;;;5.88;4.40;;;11.80;49.80;;;;;;5055733;28;20021;-33
2022/04/19 02:43:03;;;;;;;6.35;4.25;;;11.90;49.90;;;;;;5055575;28;20425;-32
2022/04/19 02:45:28;;;;;;;5.75;4.35;;;11.90;49.90;;;;;;5056038;28;20024;-29
2022/04/19 02:48:05;;;;;;;6.05;4.50;;;11.80;49.90;;;;;;5055511;28;20021;-29
2022/04/19 02:50:40;;;;;;;6.68;4.43;;;11.80;50.00;;;;;;5037447;28;20508;-30
2022/04/19 02:53:06;;;;;;;7.20;4.88;;;11.80;50.10;;;;;;5055346;28;20017;-30
2022/04/19 02:55:31;;;;;;;6.38;3.97;;;11.70;50.10;;;;;;5055323;28;20040;-32
2022/04/19 02:57:57;;;;;;;5.95;4.10;;;11.70;50.20;;;;;;5055405;28;20372;-32
2022/04/19 03:00:23;;;;;;;7.68;5.00;;;11.70;50.30;;;;;;5055465;28;20016;-29
2022/04/19 03:02:50;;;;;;;8.80;4.60;;;11.70;50.30;;;;;;5055328;28;20017;-33
2022/04/19 03:05:20;;;;;;;7.40;4.90;;;11.70;50.30;;;;;;5055207;28;20020;-30
2022/04/19 03:07:47;;;;;;;6.60;4.18;;;11.70;50.30;;;;;;5055192;28;20029;-35
2022/04/19 03:10:12;;;;;;;7.10;4.93;;;11.70;50.90;;;;;;5054985;28;20032;-34
2022/04/19 03:12:38;;;;;;;6.47;4.80;;;11.60;50.30;;;;;;5055085;28;20393;-29
2022/04/19 03:15:04;;;;;;;5.43;4.40;;;11.60;50.30;;;;;;5055286;28;20017;-32
2022/04/19 03:17:30;;;;;;;7.88;5.10;;;11.60;50.30;;;;;;5054900;28;20029;-30
2022/04/19 03:19:55;;;;;;;8.32;4.95;;;11.60;50.40;;;;;;5054946;28;20056;-30
2022/04/19 03:22:21;;;;;;;6.95;4.70;;;11.60;50.50;;;;;;5054533;28;20054;-29
2022/04/19 03:27:43;;;;;;;7.20;4.50;;;11.60;50.60;;;;;;5054922;28;20095;-30
2022/04/19 03:30:14;;;;;;;6.78;4.63;;;11.60;50.60;;;;;;5053859;28;20052;-30
2022/04/19 03:32:44;;;;;;;7.57;4.93;;;11.60;50.60;;;;;;5054552;28;20027;-31
2022/04/19 03:35:13;;;;;;;8.55;5.15;;;11.60;50.60;;;;;;5054699;28;20048;-30
2022/04/19 03:37:39;;;;;;;6.20;4.63;;;11.50;50.60;;;;;;5054536;28;20037;-34
2022/04/19 03:40:06;;;;;;;6.90;4.68;;;11.50;50.60;;;;;;5036723;28;20044;-30
2022/04/19 03:42:32;;;;;;;6.80;4.60;;;11.50;50.60;;;;;;5054512;28;20503;-29
2022/04/19 03:44:57;;;;;;;6.82;5.00;;;11.50;50.70;;;;;;5054570;28;20017;-30
2022/04/19 03:47:23;;;;;;;7.25;4.70;;;11.50;50.70;;;;;;5054647;28;20048;-41
2022/04/19 03:49:49;;;;;;;7.85;5.00;;;11.50;50.80;;;;;;5036631;28;20025;-32
2022/04/19 03:52:15;;;;;;;9.02;5.05;;;11.40;50.90;;;;;;5054840;28;20025;-31
2022/04/19 03:54:40;;;;;;;7.38;4.93;;;11.40;51.00;;;;;;5054419;28;20036;-32
2022/04/19 03:57:08;;;;;;;7.47;5.20;;;11.40;51.00;;;;;;5054091;28;20032;-33
2022/04/19 03:59:37;;;;;;;7.68;5.10;;;11.40;51.10;;;;;;5054445;28;20445;-30
2022/04/19 04:02:04;;;;;;;7.15;5.07;;;11.40;51.10;;;;;;5054420;28;20473;-31
2022/04/19 04:04:35;;;;;;;7.78;4.88;;;11.30;51.10;;;;;;5054303;28;20037;-34
2022/04/19 04:07:02;;;;;;;7.05;4.63;;;11.30;51.20;;;;;;5054316;28;20435;-34
2022/04/19 04:09:37;;;;;;;5.97;4.50;;;11.30;51.20;;;;;;5053997;28;20017;-29
2022/04/19 04:12:05;;;;;;;10.07;5.38;;;11.30;51.20;;;;;;5053882;28;20469;-30
2022/04/19 04:14:31;;;;;;;7.65;5.15;;;11.30;51.20;;;;;;5053896;28;20437;-29
2022/04/19 04:16:57;;;;;;;7.53;4.97;;;11.30;51.20;;;;;;5053801;28;20067;-30
2022/04/19 04:19:23;;;;;;;9.20;4.80;;;11.30;51.20;;;;;;5054162;28;20108;-31
2022/04/19 04:21:48;;;;;;;9.35;5.25;;;11.30;51.20;;;;;;5053716;28;20025;-29
2022/04/19 04:24:14;;;;;;;7.45;4.80;;;11.30;51.20;;;;;;5053972;28;20465;-32
2022/04/19 04:26:39;;;;;;;6.88;5.13;;;11.30;51.20;;;;;;5053700;28;20033;-30
2022/04/19 04:29:05;;;;;;;7.18;4.90;;;11.30;51.20;;;;;;5053600;28;20447;-31
2022/04/19 04:31:31;;;;;;;6.70;5.03;;;11.30;51.20;;;;;;5053530;28;20100;-35
2022/04/19 04:33:57;;;;;;;7.72;4.80;;;11.30;51.30;;;;;;5053792;28;20033;-30
2022/04/19 04:36:23;;;;;;;8.68;4.88;;;11.30;51.30;;;;;;5053461;28;20124;-30
2022/04/19 04:38:48;;;;;;;6.18;4.45;;;11.30;51.30;;;;;;5053882;28;20017;-31
2022/04/19 04:41:14;;;;;;;7.93;5.30;;;11.30;51.30;;;;;;5053709;28;20488;-30
2022/04/19 04:43:40;;;;;;;7.90;4.90;;;11.20;51.20;;;;;;5053694;28;20079;-32
2022/04/19 04:51:34;;;;;;;9.32;5.00;;;11.30;51.40;;;;;;5053654;28;20036;-39
2022/04/19 04:54:00;;;;;;;8.48;5.05;;;11.20;51.40;;;;;;5053367;28;20025;-33
2022/04/19 04:56:26;;;;;;;7.68;4.85;;;11.30;51.50;;;;;;5053007;28;20029;-32
2022/04/19 04:58:51;;;;;;;8.77;5.55;;;11.30;51.50;;;;;;5053091;28;20033;-32
2022/04/19 05:01:17;;;;;;;8.23;5.18;;;11.30;51.50;;;;;;5035022;28;20013;-35
2022/04/19 05:03:42;;;;;;;9.25;5.70;;;11.30;51.60;;;;;;5052951;28;20021;-35
2022/04/19 05:06:08;;;;;;;7.95;5.18;;;11.30;51.80;;;;;;5052961;28;20100;-30
2022/04/19 05:08:33;;;;;;;8.02;5.20;;;11.30;51.90;;;;;;5052871;28;20021;-30
2022/04/19 05:10:59;;;;;;;7.07;5.07;;;11.30;52.10;;;;;;5052906;28;20369;-32
2022/04/19 05:13:24;;;;;;;8.85;5.18;;;11.30;52.20;;;;;;5052746;28;20435;-32
2022/04/19 05:15:50;;;;;;;7.05;5.10;;;11.30;52.20;;;;;;5052702;28;20017;-30
2022/04/19 05:18:16;;;;;;;7.68;5.60;;;11.40;52.20;;;;;;5052546;28;20025;-34
2022/04/19 05:20:42;;;;;;;10.30;5.40;;;11.30;52.10;;;;;;5052504;28;20078;-33
2022/04/19 05:23:08;;;;;;;8.68;5.13;;;11.40;52.20;;;;;;5052512;28;20102;-32
2022/04/19 05:25:34;;;;;;;7.57;5.32;;;11.40;52.20;;;;;;5052687;28;20055;-32
2022/04/19 05:27:59;;;;;;;9.43;5.63;;;11.40;52.20;;;;;;5052651;28;20032;-30
2022/04/19 05:30:25;;;;;;;7.28;4.72;;;11.50;52.20;;;;;;5052691;28;20096;-32
2022/04/19 05:32:50;;;;;;;7.80;5.10;;;11.50;52.20;;;;;;5052751;28;20032;-34
2022/04/19 05:35:16;;;;;;;8.77;5.22;;;11.60;52.20;;;;;;5035047;28;20500;-30
2022/04/19 05:37:41;;;;;;;7.35;4.47;;;11.60;52.20;;;;;;5052720;28;20063;-32
2022/04/19 05:40:07;;;;;;;7.45;5.18;;;11.60;52.20;;;;;;5052885;28;20025;-32
2022/04/19 05:42:33;;;;;;;9.93;4.95;;;11.70;52.10;;;;;;5052776;28;20360;-31
2022/04/19 05:44:59;;;;;;;8.10;5.07;;;11.80;52.00;;;;;;5052671;28;20104;-31
2022/04/19 05:47:24;;;;;;;8.48;5.15;;;11.80;51.90;;;;;;5052443;28;20025;-31
2022/04/19 05:49:51;;;;;;;7.45;4.97;;;11.90;51.90;;;;;;5052283;28;20120;-31
2022/04/19 05:52:17;;;;;;;7.10;4.88;;;11.90;51.70;;;;;;5051984;28;20059;-32
2022/04/19 05:54:42;;;;;;;8.77;5.18;;;12.00;51.70;;;;;;5052214;28;20025;-32
2022/04/19 05:57:10;;;;;;;8.43;5.28;;;12.00;51.60;;;;;;5052294;28;20051;-35
2022/04/19 05:59:35;;;;;;;9.55;5.07;;;12.10;51.50;;;;;;5052232;28;20012;-31
2022/04/19 06:04:57;;;;;;;6.75;4.78;;;12.20;51.20;;;;;;5052232;28;20068;-29
2022/04/19 06:07:24;;;;;;;8.02;4.78;;;12.30;51.10;;;;;;5051915;28;20029;-30
2022/04/19 06:09:49;;;;;;;7.85;5.13;;;12.40;51.10;;;;;;5052366;28;20108;-29
2022/04/19 06:12:15;;;;;;;7.90;4.75;;;12.40;50.90;;;;;;5052151;28;20029;-31
2022/04/19 06:14:41;;;;;;;7.85;5.30;;;12.50;50.80;;;;;;5052175;28;20107;-49
2022/04/19 06:17:06;;;;;;;7.38;4.80;;;12.60;50.70;;;;;;5052183;28;20029;-32
2022/04/19 06:19:32;;;;;;;7.90;4.60;;;12.70;50.70;;;;;;5051947;28;20143;-33
2022/04/19 06:21:58;;;;;;;7.53;4.70;;;12.80;50.60;;;;;;5051789;28;20064;-34
2022/04/19 06:24:25;;;;;;;9.75;5.20;;;12.80;50.50;;;;;;5034000;28;20060;-32
2022/04/19 06:26:51;;;;;;;9.18;5.22;;;12.90;50.40;;;;;;5051811;28;20028;-30
2022/04/19 06:29:17;;;;;;;6.18;4.25;;;13.00;50.30;;;;;;5051851;28;20025;-33
2022/04/19 06:31:46;;;;;;;10.02;5.20;;;13.00;50.30;;;;;;5051765;28;20124;-31
2022/04/19 06:34:12;;;;;;;7.68;4.97;;;13.10;50.20;;;;;;5051985;28;20029;-32
2022/04/19 06:36:38;;;;;;;8.45;4.55;;;13.20;50.10;;;;;;5051850;28;20496;-31
2022/04/19 06:39:04;;;;;;;6.70;4.50;;;13.20;50.00;;;;;;5051751;28;20025;-29
2022/04/19 06:41:30;;;;;;;6.10;4.30;;;13.30;50.00;;;;;;5051547;28;20104;-30
2022/04/19 06:43:58;;;;;;;7.82;4.43;;;13.40;50.60;;;;;;5051732;28;20082;-34
2022/04/19 06:46:27;;;;;;;7.07;4.30;;;13.40;50.00;;;;;;5051882;28;20025;-29
2022/04/19 06:48:56;;;;;;;6.15;4.32;;;13.50;49.90;;;;;;5051866;28;20136;-29
2022/04/19 06:51:23;;;;;;;6.63;4.78;;;13.60;49.80;;;;;;5051853;28;20043;-29
2022/04/19 06:53:49;;;;;;;6.63;4.47;;;13.60;49.70;;;;;;5051461;28;20067;-29
2022/04/19 06:56:18;;;;;;;8.90;4.72;;;13.70;49.70;;;;;;5050992;28;20075;-33
2022/04/19 06:58:44;;;;;;;8.45;4.93;;;13.70;49.60;;;;;;5051430;28;20075;-29
2022/04/19 07:01:11;;;;;;;7.63;4.57;;;13.80;49.60;;;;;;5051403;28;20017;-30
2022/04/19 07:03:39;;;;;;;5.93;4.00;;;13.80;49.40;;;;;;5051105;28;20024;-35
2022/04/19 07:06:06;;;;;;;9.32;4.82;;;13.90;49.30;;;;;;5054054;28;20025;-29
2022/04/19 07:08:32;;;;;;;7.05;4.57;;;14.00;49.30;;;;;;5054722;28;20481;-31
2022/04/19 07:11:00;;;;;;;6.57;4.30;;;14.10;49.20;;;;;;5054809;28;20125;-31
2022/04/19 07:13:26;;;;;;;6.32;4.38;;;14.10;49.10;;;;;;5054905;28;20032;-29
2022/04/19 07:15:53;;;;;;;6.32;4.25;;;14.20;49.00;;;;;;5055225;28;20104;-30
2022/04/19 07:18:22;;;;;;;6.18;4.22;;;14.20;48.90;;;;;;5036927;28;20029;-29
2022/04/19 07:29:02;;;;;;;6.90;4.30;;;14.50;48.40;;;;;;5054900;28;20174;-28
2022/04/19 07:31:28;;;;;;;6.05;4.28;;;14.60;48.30;;;;;;5054412;28;20028;-28
2022/04/19 07:33:54;;;;;;;7.03;4.30;;;14.60;48.20;;;;;;5054324;28;20020;-28
2022/04/19 07:36:20;;;;;;;7.40;4.10;;;14.70;48.00;;;;;;5054268;28;20074;-36
2022/04/19 07:38:45;;;;;;;7.78;4.25;;;14.70;47.80;;;;;;5054642;28;20423;-32
2022/04/19 07:41:12;;;;;;;8.65;4.20;;;14.80;47.80;;;;;;5054294;28;20016;-28
2022/04/19 07:43:38;;;;;;;7.30;4.18;;;14.80;47.70;;;;;;5054278;28;20025;-33
2022/04/19 07:46:10;;;;;;;5.80;3.60;;;14.90;47.60;;;;;;5054558;28;20020;-31
2022/04/19 07:48:36;;;;;;;6.05;3.38;;;14.90;47.60;;;;;;5054471;28;20047;-31
2022/04/19 07:51:01;;;;;;;6.57;3.75;;;15.00;47.50;;;;;;5054306;28;20064;-34
2022/04/19 07:53:27;;;;;;;6.32;4.10;;;15.10;47.30;;;;;;5054396;28;20473;-30
2022/04/19 07:55:55;;;;;;;6.88;4.05;;;15.10;47.20;;;;;;5054172;28;20028;-30
2022/04/19 07:58:20;;;;;;;6.10;3.70;;;15.20;47.10;;;;;;5054258;28;20025;-30
2022/04/19 08:00:46;;;;;;;6.32;3.95;;;15.20;46.90;;;;;;5054107;28;20032;-31
2022/04/19 08:03:12;;;;;;;5.45;3.60;;;15.30;46.90;;;;;;5054236;28;20406;-42
2022/04/19 08:05:39;;;;;;;5.07;3.10;;;15.40;46.80;;;;;;5053855;28;20028;-30
2022/04/19 08:08:05;;;;;;;6.07;3.47;;;15.40;46.80;;;;;;5053852;28;20043;-31
2022/04/19 08:10:30;;;;;;;5.07;3.60;;;15.40;46.60;;;;;;5054168;28;20468;-32
2022/04/19 08:12:56;;;;;;;5.05;3.25;;;15.50;46.50;;;;;;5053826;28;20103;-31
2022/04/19 08:15:23;;;;;;;5.18;3.30;;;15.50;46.40;;;;;;5053413;28;20040;-32
2022/04/19 08:17:49;;;;;;;3.88;2.72;;;15.60;46.30;;;;;;5053688;28;20262;-32
2022/04/19 08:20:14;;;;;;;4.68;2.80;;;15.60;46.30;;;;;;5053770;28;20033;-37
2022/04/19 08:22:41;;;;;;;5.10;3.17;;;15.70;46.40;;;;;;5053747;28;20045;-32
2022/04/19 08:25:10;;;;;;;5.40;3.13;;;15.70;46.30;;;;;;5036029;28;20041;-34
2022/04/19 08:27:41;;;;;;;4.15;2.50;;;15.80;46.20;;;;;;5053824;28;20029;-32
2022/04/19 08:30:08;;;;;;;4.53;2.95;;;15.80;46.40;;;;;;5053887;28;20037;-31
2022/04/19 08:32:34;;;;;;;4.43;2.95;;;15.80;47.40;;;;;;5053703;28;20039;-33
2022/04/19 08:35:00;;;;;;;4.30;2.85;;;15.90;47.90;;;;;;5053729;28;20100;-31
2022/04/19 08:37:34;;;;;;;4.35;2.97;;;15.90;48.60;;;;;;5053373;28;20024;-30
2022/04/19 08:40:00;;;;;;;3.50;2.75;;;16.00;48.60;;;;;;5053347;28;20033;-30
2022/04/19 08:42:29;;;;;;;5.15;3.30;;;16.00;49.90;;;;;;5053401;28;20171;-32
2022/04/19 08:44:56;;;;;;;5.43;2.65;;;16.10;48.70;;;;;;5053449;28;20032;-33
2022/04/19 08:47:23;;;;;;;5.60;3.42;;;16.10;49.70;;;;;;5053131;28;20067;-33
2022/04/19 08:49:53;;;;;;;6.22;3.00;;;16.10;49.30;;;;;;5053417;28;20436;-37
2022/04/19 08:52:20;;;;;;;5.85;3.22;;;16.20;48.70;;;;;;5053233;28;20037;-31
2022/04/19 08:57:31;;;;;;;4.75;3.00;;;16.30;48.30;;;;;;5053046;28;20044;-33
2022/04/19 09:00:02;;;;;;;6.38;3.00;;;16.40;48.60;;;;;;5034982;28;20389;-35
2022/04/19 09:02:32;;;;;;;4.95;3.42;;;16.40;48.00;;;;;;5053185;28;20484;-32
2022/04/19 09:05:21;;;;;;;4.85;3.25;;;16.40;47.40;;;;;;5053625;28;20029;-31
2022/04/19 09:07:52;;;;;;;5.35;3.22;;;16.40;47.00;;;;;;5053287;28;20025;-32
2022/04/19 09:10:32;;;;;;;4.97;3.28;;;16.40;47.10;;;;;;5052559;28;20037;-33
2022/04/19 09:12:58;;;;;;;4.63;2.90;;;16.50;46.90;;;;;;5052598;28;20044;-30
2022/04/19 09:15:34;;;;;;;7.25;3.38;;;16.50;47.10;;;;;;5052926;28;20349;-31
2022/04/19 09:18:00;;;;;;;4.60;2.92;;;16.60;47.00;;;;;;5052761;28;20040;-32
2022/04/19 09:20:31;;;;;;;4.03;2.95;;;16.70;46.90;;;;;;5053086;28;20082;-33
2022/04/19 09:23:05;;;;;;;3.63;2.50;;;16.80;47.90;;;;;;5052412;28;20114;-30
2022/04/19 09:25:32;;;;;;;3.95;2.38;;;16.80;48.10;;;;;;5052361;28;20102;-31
2022/04/19 09:27:59;;;;;;;4.07;2.28;;;16.90;48.70;;;;;;5051984;28;20392;-32
2022/04/19 09:30:27;;;;;;;4.63;2.75;;;16.90;49.80;;;;;;5052384;28;20040;-33
2022/04/19 09:33:07;;;;;;;3.53;2.47;;;17.00;48.90;;;;;;5034341;28;20119;-35
2022/04/19 09:35:47;;;;;;;3.65;2.17;;;17.10;48.10;;;;;;5052138;28;20036;-34
2022/04/19 09:38:13;;;;;;;4.75;2.60;;;17.00;47.90;;;;;;5052490;28;20480;-33
2022/04/19 09:40:44;;;;;;;4.43;2.50;;;17.10;47.90;;;;;;5052132;28;20025;-31
2022/04/19 09:43:20;;;;;;;7.38;3.17;;;17.10;48.40;;;;;;5052349;28;20029;-30
2022/04/19 09:45:51;;;;;;;3.88;2.08;;;17.20;48.20;;;;;;5033989;28;20028;-31
2022/04/19 09:48:25;;;;;;;8.07;2.40;;;17.30;48.80;;;;;;5052107;28;20025;-30
2022/04/19 09:50:53;;;;;;;3.08;2.08;;;17.30;48.00;;;;;;5052355;28;20210;-30
2022/04/19 09:53:21;;;;;;;4.40;2.72;;;17.40;47.20;;;;;;5052085;28;20037;-35
2022/04/19 09:55:48;;;;;;;3.78;2.47;;;17.40;46.50;;;;;;5051982;28;20039;-34
2022/04/19 09:58:15;;;;;;;3.67;2.47;;;17.40;46.20;;;;;;5051857;28;20029;-31
2022/04/19 10:00:43;;;;;;;5.22;2.85;;;17.30;45.80;;;;;;5052326;28;20503;-37
2022/04/19 10:08:38;;;;;;;4.95;2.83;;;17.30;46.00;;;;;;5052248;28;20041;-31
2022/04/19 10:11:04;;;;;;;3.80;2.30;;;17.40;47.00;;;;;;5051954;28;20033;-33
2022/04/19 10:13:32;;;;;;;5.07;2.83;;;17.50;49.80;;;;;;5034476;28;20051;-34
2022/04/19 10:15:59;;;;;;;4.78;2.17;;;17.60;48.40;;;;;;5052378;28;20498;-33
2022/04/19 10:18:24;;;;;;;3.95;2.45;;;17.70;48.30;;;;;;5052141;28;20025;-37
2022/04/19 10:20:50;;;;;;;5.80;2.97;;;17.70;48.70;;;;;;5051840;28;20029;-30
2022/04/19 10:23:16;;;;;;;3.15;2.30;;;17.80;47.70;;;;;;5051779;28;20053;-31
2022/04/19 10:25:44;;;;;;;3.47;2.60;;;17.90;47.80;;;;;;5052066;28;20056;-31
2022/04/19 10:28:13;;;;;;;4.18;2.65;;;17.90;48.30;;;;;;5051946;28;20021;-36
2022/04/19 10:30:46;;;;;;;3.80;2.55;;;17.90;47.60;;;;;;5051854;28;20108;-30
2022/04/19 10:33:50;;;;;;;3.95;2.53;;;18.00;47.80;;;;;;5051604;28;20120;-32
2022/04/19 10:36:40;;;;;;;2.78;2.03;;;18.00;49.00;;;;;;5051481;28;20125;-31
2022/04/19 10:39:11;;;;;;;3.47;2.25;;;18.10;48.80;;;;;;5052933;28;20029;-30
2022/04/19 10:42:00;;;;;;;4.15;2.20;;;18.10;48.90;;;;;;5055515;28;20037;-36
2022/04/19 10:44:36;;;;;;;2.78;1.98;;;18.20;49.40;;;;;;5055637;28;20035;-36
2022/04/19 10:47:06;;;;;;;3.38;2.33;;;18.20;49.30;;;;;;5055628;28;20033;-35
2022/04/19 10:49:57;;;;;;;4.88;2.80;;;18.20;49.20;;;;;;5055380;28;20041;-31
2022/04/19 10:52:38;;;;;;;3.95;2.53;;;18.20;48.40;;;;;;5038562;28;20087;-33
2022/04/19 10:55:08;;;;;;;3.88;2.50;;;18.30;48.70;;;;;;5055598;28;20116;-34
2022/04/19 10:58:06;;;;;;;4.57;2.90;;;18.40;48.20;;;;;;5037278;28;20060;-31
2022/04/19 11:00:34;;;;;;;4.13;2.67;;;18.50;47.10;;;;;;5021542;28;20033;-33
2022/04/19 11:03:02;;;;;;;3.97;2.78;;;18.50;47.90;;;;;;5055418;28;20396;-32
2022/04/19 11:05:46;;;;;;;4.82;2.63;;;18.60;47.20;;;;;;5055165;28;20037;-36
2022/04/19 11:08:19;;;;;;;;;;;18.60;47.60;;;;;;5037855;28;20045;-34
2022/04/19 11:10:45;;;;;;;2.88;1.65;;;18.70;48.10;;;;;;5055182;28;19909;-45
2022/04/19 11:13:11;;;;;;;3.85;2.00;;;18.70;49.60;;;;;;5055025;28;20166;-45
2022/04/19 11:15:37;;;;;;;3.92;2.42;;;18.80;49.90;;;;;;5055067;28;20021;-45
2022/04/19 11:18:22;;;;;;;3.28;2.33;;;18.80;50.20;;;;;;5054899;28;20392;-37
2022/04/19 11:20:58;;;;;;;3.90;2.45;;;18.90;48.40;;;;;;5054957;28;20032;-38
2022/04/19 11:23:26;;;;;;;6.45;2.80;;;18.90;48.70;;;;;;5054698;28;20485;-37
2022/04/19 11:25:53;;;;;;;4.13;2.75;;;19.00;47.90;;;;;;5037399;28;20021;-39
2022/04/19 11:28:26;;;;;;;4.63;2.70;;;19.10;47.70;;;;;;5055394;28;20382;-38
2022/04/19 11:30:57;;;;;;;4.93;2.63;;;19.10;46.00;;;;;;5055133;28;20436;-38
2022/04/19 11:33:25;;;;;;;3.22;2.22;;;19.20;46.90;;;;;;5055432;28;20063;-46
2022/04/19 11:36:09;;;;;;;4.97;3.08;;;19.20;47.40;;;;;;5054681;28;20029;-46
2022/04/19 11:38:42;;;;;;;;;;;19.30;46.40;;;;;;5037072;28;20033;-46
2022/04/19 11:46:45;;;;;;;3.92;2.60;;;19.40;46.40;;;;;;5054705;28;20045;-45
2022/04/19 11:49:16;;;;;;;4.75;2.85;;;19.40;46.50;;;;;;5054863;28;20119;-49
2022/04/19 11:51:52;;;;;;;4.68;2.60;;;19.50;45.90;;;;;;5053952;28;20053;-46
2022/04/19 11:54:26;;;;;;;7.07;2.55;;;19.60;45.80;;;;;;5054284;28;20441;-45
2022/04/19 11:56:53;;;;;;;3.95;2.80;;;19.70;45.70;;;;;;5054124;28;20425;-47
2022/04/19 11:59:35;;;;;;;4.18;2.70;;;19.70;44.70;;;;;;5054178;28;20035;-46
2022/04/19 12:02:02;;;;;;;3.13;2.40;;;19.80;44.80;;;;;;5054262;28;20110;-46
2022/04/19 12:04:28;;;;;;;3.65;2.10;;;19.80;44.90;;;;;;5054358;28;20024;-45
2022/04/19 12:06:57;;;;;;;3.17;2.08;;;19.90;45.30;;;;;;5054613;28;20377;-46
2022/04/19 12:09:24;;;;;;;5.88;2.20;;;20.00;45.90;;;;;;5054411;28;20108;-46
2022/04/19 12:11:50;;;;;;;3.78;2.38;;;20.10;46.40;;;;;;5054127;28;20587;-46
2022/04/19 12:14:26;;;;;;;3.08;2.20;;;20.10;45.30;;;;;;5053801;28;20029;-44
2022/04/19 12:17:02;;;;;;;2.40;2.10;;;20.20;45.40;;;;;;5053720;28;20130;-47
2022/04/19 12:19:35;;;;;;;2.92;2.30;;;20.20;46.30;;;;;;5053887;28;20523;-47
2022/04/19 12:22:02;;;;;;;3.50;1.92;;;20.30;45.10;;;;;;5053983;28;20040;-46
2022/04/19 12:24:29;;;;;;;4.30;2.55;;;20.30;45.00;;;;;;5053768;28;20037;-46
2022/04/19 12:27:05;;;;;;;4.85;2.50;;;20.30;43.80;;;;;;5036554;28;20039;-46
2022/04/19 12:29:32;;;;;;;4.90;2.83;;;20.30;43.40;;;;;;5053836;28;20033;-45
2022/04/19 12:32:00;;;;;;;4.82;2.28;;;20.30;43.20;;;;;;5053807;28;20072;-47
2022/04/19 12:34:38;;;;;;;4.78;2.50;;;20.30;43.30;;;;;;5053993;28;20029;-46
2022/04/19 12:37:10;;;;;;;3.75;2.70;;;20.40;43.50;;;;;;5053510;28;20025;-46
2022/04/19 12:39:35;;;;;;;2.97;2.20;;;20.40;43.30;;;;;;5053621;28;20592;-47
2022/04/19 12:42:07;;;;;;;4.15;2.33;;;20.40;43.20;;;;;;5053614;28;20033;-47
2022/04/19 12:44:35;;;;;;;2.65;1.90;;;20.50;43.50;;;;;;5053165;28;20059;-46
2022/04/19 12:47:09;;;;;;;4.63;2.00;;;20.50;44.30;;;;;;5053468;28;20107;-46
2022/04/19 12:49:45;;;;;;;2.55;1.90;;;20.50;44.30;;;;;;5053385;28;20025;-46
2022/04/19 12:52:12;;;;;;;3.90;1.70;;;20.60;44.30;;;;;;5053199;28;20028;-46
2022/04/19 12:54:39;;;;;;;3.70;2.50;;;20.60;45.70;;;;;;5053042;28;20069;-46
2022/04/19 12:57:23;;;;;;;3.15;2.28;;;20.60;43.10;;;;;;5052939;28;20037;-46
2022/04/19 12:59:50;;;;;;;3.38;1.98;;;20.60;42.70;;;;;;5052940;28;20031;-46
2022/04/19 13:02:18;;;;;;;2.10;1.63;;;20.60;43.70;;;;;;5034293;28;20033;-43
2022/04/19 13:04:45;;;;;;;2.53;2.00;;;20.70;44.20;;;;;;5052736;28;20017;-46
2022/04/19 13:12:39;;;;;;;3.55;2.00;;;20.90;44.20;;;;;;5052565;28;20072;-46
2022/04/19 13:15:06;;;;;;;3.50;2.33;;;21.00;43.50;;;;;;5052987;28;20041;-37
2022/04/19 13:17:37;;;;;;;2.20;1.90;;;21.00;42.60;;;;;;5034717;28;20060;-39
2022/04/19 13:20:04;;;;;;;2.55;1.77;;;21.10;43.40;;;;;;5052617;28;20036;-39
2022/04/19 13:22:30;;;;;;;2.03;1.63;;;21.10;43.20;;;;;;5034324;28;20063;-39
2022/04/19 13:24:57;;;;;;;3.58;1.70;;;21.20;43.20;;;;;;5052482;28;20029;-45
2022/04/19 13:27:25;;;;;;;2.25;1.75;;;21.30;43.90;;;;;;5052719;28;20554;-39
2022/04/19 13:29:52;;;;;;;3.03;2.10;;;21.40;43.70;;;;;;5052481;28;20036;-40
2022/04/19 13:32:19;;;;;;;2.88;2.10;;;21.50;42.80;;;;;;5052646;28;20032;-38
2022/04/19 13:34:44;;;;;;;2.45;1.88;;;21.50;42.50;;;;;;5052620;28;20033;-38
2022/04/19 13:37:10;;;;;;;1.73;1.50;;;21.50;42.20;;;;;;5034443;28;20048;-40